Flight Track Log - Related Links

Times and Time Zones

All times are in EDT time to prevent confusion due to time zone crossing. See the EXS315 flight status page for this flight to view local times or setup timezone preferences in your user account.

Time Position Orientation Groundspeed Altitude Reporting Facility
EDT Latitude Longitude Course Direction KTS MPH feet Rate Location/Type
Tue 09:40:04 AM 50.0387 0.9683 42° Northeast 404 465 24,300  Level FlightAware UK
Tue 09:40:17 AM 50.0500 0.9840 151° Southeast 429 494 25,600 -500 Climbing FlightAware ADS-B
Tue 09:40:52 AM 49.9568 1.0359 151° Southeast 378 435 23,900 -450 Descending FlightAware UK
Tue 09:40:57 AM 49.9840 1.0400 151° Southeast 405 466 25,300 -2,800 Climbing FlightAware ADS-B
Tue 09:41:22 AM 49.9062 1.0785 151° Southeast 396 456 22,500 -2,250 Descending FlightAware UK
Tue 09:41:37 AM 49.9190 1.0950 151° Southeast 416 479 23,800 -1,000 Climbing FlightAware ADS-B
Tue 09:41:52 AM 49.8548 1.1202 151° Southeast 396 456 22,000 -3,385 Descending FlightAware UK
Tue 09:42:16 AM 49.8137 1.1540 152° Southeast 398 458 21,600 2,880 Descending FlightAware UK
Tue 09:42:17 AM 49.8510 1.1510 152° Southeast 418 481 23,200 -1,000 Climbing FlightAware ADS-B
Tue 09:42:40 AM 49.7723 1.1874 152° Southeast 398 458 21,200 -3,366 Descending FlightAware UK
Tue 09:42:58 AM 49.7411 1.2130 152° Southeast 396 456 20,900 1,622 Descending FlightAware UK
Tue 09:43:17 AM 49.7510 1.2340 152° Southeast 405 466 22,200 -1,667 Climbing FlightAware ADS-B
Tue 09:43:34 AM 49.6800 1.2629 152° Southeast 382 440 19,900 -2,100 Descending FlightAware UK
Tue 09:43:57 AM 49.6840 1.2890 152° Southeast 403 464 20,800 -2,286 Climbing FlightAware ADS-B
Tue 09:44:16 AM 49.6109 1.3190 152° Southeast 380 437 18,300 -5,189 Descending FlightAware UK
Tue 09:44:34 AM 49.5813 1.3429 152° Southeast 378 435 17,600 1,615 Descending FlightAware UK
Tue 09:44:42 AM 49.6110 1.3480 152° Southeast 388 447 19,000 -125 Climbing FlightAware ADS-B
Tue 09:45:22 AM 49.5480 1.4010 151° Southeast 385 443 17,500 -4,034 Descending FlightAware ADS-B
Tue 09:45:40 AM 49.4757 1.4286 151° Southeast 368 423 15,100 -5,000 Descending FlightAware UK
Tue 09:45:58 AM 49.4471 1.4519 152° Southeast 366 421 14,500 2,455 Descending FlightAware UK
Tue 09:46:02 AM 49.4850 1.4530 152° Southeast 370 426 16,000 -2,333 Climbing FlightAware ADS-B
Tue 09:46:34 AM 49.3926 1.4960 152° Southeast 356 410 13,100 -2,133 Descending FlightAware UK
Tue 09:46:47 AM 49.4170 1.5080 152° Southeast 367 422 14,400 -2,000 Climbing FlightAware ADS-B
Tue 09:47:22 AM 49.3205 1.5538 152° Southeast 344 396 11,500 -1,950 Descending FlightAware UK
Tue 09:47:27 AM 49.3600 1.5570 152° Southeast 356 410 13,100 4,500 Climbing FlightAware ADS-B
Tue 09:47:42 AM 49.3440 1.5860 130° Southeast 352 405 13,000 -400 Descending FlightAware ADS-B
Tue 09:47:57 AM 49.3350 1.6230 110° East 347 399 12,900 -2,348 Descending FlightAware ADS-B
Tue 09:48:28 AM 49.2927 1.7063 110° East 336 387 11,200 -450 Descending FlightAware UK
Tue 09:48:37 AM 49.3310 1.7190 110° East 346 398 12,600 -2,200 Climbing FlightAware ADS-B
Tue 09:48:58 AM 49.2896 1.7801 110° East 1 1 10,100 -4,923 Descending FlightAware UK
Tue 09:49:16 AM 49.2876 1.8243 94° East 344 396 9,400 3,158 Descending FlightAware UK
Tue 09:49:17 AM 49.3270 1.8180 94° East 347 399 11,100 333 Climbing FlightAware ADS-B
Tue 09:49:34 AM 49.2859 1.8686 94° East 330 380 9,500 -133 Descending FlightAware UK
Tue 09:50:02 AM 49.3230 1.9250 94° East 334 384 11,000  Climbing FlightAware ADS-B
Tue 09:50:28 AM 49.2813 1.9972 94° East 330 380 9,500  Descending FlightAware UK
Tue 09:50:42 AM 49.3190 2.0190 94° East 336 387 11,000 2,500 Climbing FlightAware ADS-B
Tue 09:51:04 AM 49.3168 2.0826 93° East 338 389 11,000  Level FlightAware ADS-B
Tue 09:51:36 AM 49.3139 2.1575 93° East 337 388 11,000 -2,000 Level FlightAware ADS-B
Tue 09:51:52 AM 49.2712 2.1937 93° East 308 354 9,400  Descending FlightAware UK
Tue 09:52:09 AM 49.3113 2.2296 93° East 337 388 11,000 1,959 Climbing FlightAware ADS-B
Tue 09:52:41 AM 49.3091 2.2969 93° East 275 316 11,000 -1,920 Level FlightAware ADS-B
Tue 09:52:59 AM 49.2665 2.3322 93° East 264 304 9,400 -2,667 Descending FlightAware UK
Tue 09:53:17 AM 49.2651 2.3682 93° East 262 302 9,400 3,097 Level FlightAware UK
Tue 09:53:30 AM 49.3053 2.3883 93° East 264 304 11,000 1,636 Climbing FlightAware ADS-B
Tue 09:54:12 AM 49.3013 2.4663 94° East 265 305 10,900 -740 Descending FlightAware ADS-B
Tue 09:54:43 AM 49.2982 2.5246 95° East 264 304 10,100 -1,421 Descending FlightAware ADS-B
Tue 09:54:50 AM 49.2967 2.5372 100° East 264 304 10,000 -1,200 Descending FlightAware ADS-B
Tue 09:55:08 AM 49.2926 2.5691 101° East 263 303 9,600 -1,543 Descending FlightAware ADS-B
Tue 09:55:25 AM 49.2888 2.6017 100° East 265 305 9,100 -1,091 Descending FlightAware ADS-B
Tue 09:55:41 AM 49.2855 2.6306 100° East 264 304 9,000 -120 Descending FlightAware ADS-B
Tue 09:56:15 AM 49.2788 2.6940 99° East 266 306 9,000  Level FlightAware ADS-B
Tue 09:56:31 AM 49.2757 2.7231 99° East 266 306 9,000  Level FlightAware ADS-B
Tue 09:56:46 AM 49.2727 2.7517 99° East 268 308 9,000  Level FlightAware ADS-B
Tue 09:57:02 AM 49.2696 2.7810 99° East 269 310 9,000  Level FlightAware ADS-B
Tue 09:57:20 AM 49.2658 2.8154 100° East 269 310 9,000  Level FlightAware ADS-B
Tue 09:58:12 AM 49.2570 2.9020 99° East 266 306 9,000 -156 Level FlightAware ADS-B
Tue 09:58:37 AM 49.2510 2.9490 101° East 263 303 8,800 -764 Descending FlightAware ADS-B
Tue 09:59:07 AM 49.2450 3.0050 99° East 256 295 8,300 -1,286 Descending FlightAware ADS-B
Tue 09:59:19 AM 49.2423 3.0338 98° East 256 295 7,900 -1,688 Descending FlightAware ADS-B
Tue 09:59:39 AM 49.2368 3.0687 104° East 257 296 7,400 -1,400 Descending FlightAware ADS-B
Tue 09:59:49 AM 49.2292 3.0834 128° Southeast 258 297 7,200 -1,286 Descending FlightAware ADS-B
Tue 09:59:53 AM 49.2256 3.0877 142° Southeast 258 297 7,100 -1,345 Descending FlightAware ADS-B
Tue 10:00:47 AM 49.1670 3.1000 172° South 256 295 5,900 -1,291 Descending FlightAware ADS-B
Tue 10:01:12 AM 49.1380 3.1010 179° South 243 280 5,400 -1,050 Descending FlightAware ADS-B
Tue 10:01:27 AM 49.1230 3.0900 206° Southwest 233 268 5,200 -600 Descending FlightAware ADS-B
Tue 10:01:42 AM 49.1130 3.0710 231° Southwest 238 274 5,100 -450 Descending FlightAware ADS-B
Tue 10:02:07 AM 49.0980 3.0340 238° Southwest 235 270 4,900 -450 Descending FlightAware ADS-B
Tue 10:02:22 AM 49.0940 3.0100 256° West 232 267 4,800 -400 Descending FlightAware ADS-B
Tue 10:02:37 AM 49.0920 2.9880 262° West 230 265 4,700 -133 Descending FlightAware ADS-B
Tue 10:03:07 AM 49.0900 2.9370 267° West 229 264 4,700 -109 Level FlightAware ADS-B
Tue 10:03:32 AM 49.0880 2.8990 265° West 213 245 4,600 -600 Descending FlightAware ADS-B
Tue 10:03:47 AM 49.0870 2.8770 266° West 209 241 4,300 -1,600 Descending FlightAware ADS-B
Tue 10:04:17 AM 49.0840 2.8330 264° West 200 230 3,400 -1,309 Descending FlightAware ADS-B
Tue 10:04:42 AM 49.0830 2.8000 267° West 176 203 3,100 -600 Descending FlightAware ADS-B
Tue 10:04:57 AM 49.0820 2.7830 265° West 165 190 3,000 -955 Descending FlightAware ADS-B
Tue 10:05:26 AM 49.0795 2.7442 264° West 162 186 2,400 -1,149 Descending FlightAware ADS-B
Tue 10:05:44 AM 49.0785 2.7240 266° West 159 183 2,100 -750 Descending FlightAware ADS-B
Tue 10:05:58 AM 49.0777 2.7083 266° West 152 175 2,000 -621 Descending FlightAware ADS-B
Tue 10:06:13 AM 49.0766 2.6924 264° West 148 170 1,800 -818 Descending FlightAware ADS-B
Tue 10:06:20 AM 49.0763 2.6851 266° West 149 171 1,700 -857 Descending FlightAware ADS-B
Tue 10:06:27 AM 49.0759 2.6779 265° West 145 167 1,600 -750 Descending FlightAware ADS-B
Tue 10:06:36 AM 49.0754 2.6697 265° West 141 162 1,500 -667 Descending FlightAware ADS-B
Tue 10:06:45 AM 49.0749 2.6599 266° West 141 162 1,400 -1,000 Descending FlightAware ADS-B
Tue 10:06:54 AM 49.0744 2.6515 265° West 134 154 1,200 -800 Descending FlightAware ADS-B
Tue 10:07:00 AM 49.0740 2.6463 263° West 130 150 1,200 -333 Level FlightAware ADS-B
Tue 10:07:12 AM 49.0735 2.6355 266° West 127 146 1,100 -632 Descending FlightAware ADS-B
Tue 10:07:19 AM 49.0730 2.6288 263° West 127 146 1,000 -1,059 Descending FlightAware ADS-B
Tue 10:07:29 AM 49.0725 2.6198 265° West 127 146 800 -800 Descending FlightAware ADS-B
Tue 10:07:34 AM 49.0723 2.6153 266° West 127 146 800 -571 Level FlightAware ADS-B
Tue 10:07:50 AM 49.0715 2.6014 265° West 130 150 600 -774 Descending FlightAware ADS-B
Tue 10:08:05 AM 49.0708 2.5880 265° West 131 151 400 -545 Descending FlightAware ADS-B
Tue 10:08:12 AM 49.0704 2.5814 265° West 132 152 400  Level FlightAware ADS-B

Login

Don't have an account? Register now (free) for customized features, flight alerts, and more!